Abel, Alabama
Current Conditions -  °F | °C
As of 12:53 PM on Saturday 25 Oct 2014 (Local Time) from KANB Reporting Station
Clear Clear  
Wind Chill: 73°   Ceiling: Unl
Heat Index: 73°   Visibility: 10mi
Dew Point: 47°   Wind: 5mph
Humidity: 39%   Direction: NA
Pressure: 30.08"   Gusts: NA
Location:  33.4483°N, 85.6826°W
Report Text: KANB 251753Z AUTO VRB04KT 10SM CLR 23/08 A3008 RMK AO2 SLP184 T02280083 10228 20039 58017
Loading
Personal Weather Stations






























Interactive Weather Map
Tropical Storm Tracking
New forecast layout! Learn more

10-Day Weather Forecast

Advertisements
Track Severe Weather on mobile